Aviation Digital Data Service (ADDS)

Output produced by METARs form (0505 UTC 27 July 2017)
found at http://www.aviationweather.gov/adds/metars/
 
METAR text: KSBP 270456Z AUTO 31008KT 10SM CLR 16/13 A2999 RMK AO2 SLP155 T01560128 $
Conditions at: KSBP (SAN LUIS OBISPO , CA, US) observed 0456 UTC 27 July 2017
Temperature: 15.6°C (60°F)
Dewpoint: 12.8°C (55°F) [RH = 83%]
Pressure (altimeter): 29.99 inches Hg (1015.7 mb)
[Sea-level pressure: 1015.5 mb]
Winds: from the NW (310 degrees) at 9 MPH (8 knots; 4.2 m/s)
Visibility: 10 or more miles (16+ km)
Ceiling: at least 12,000 feet AGL
Clouds: sky clear below 12,000 feet AGL
Weather:
SOME DATA ABOVE MAY BE INACCURATE!!!
"$" is an indication the sensor requires maintenance

METAR text: KSBP 270356Z AUTO 31010KT 10SM CLR 16/13 A2999 RMK AO2 SLP152 T01560128 $
Conditions at: KSBP (SAN LUIS OBISPO , CA, US) observed 0356 UTC 27 July 2017
Temperature: 15.6°C (60°F)
Dewpoint: 12.8°C (55°F) [RH = 83%]
Pressure (altimeter): 29.99 inches Hg (1015.7 mb)
[Sea-level pressure: 1015.2 mb]
Winds: from the NW (310 degrees) at 12 MPH (10 knots; 5.2 m/s)
Visibility: 10 or more miles (16+ km)
Ceiling: at least 12,000 feet AGL
Clouds: sky clear below 12,000 feet AGL
Weather:
SOME DATA ABOVE MAY BE INACCURATE!!!
"$" is an indication the sensor requires maintenance

METAR text: KSBP 270256Z 31010KT 10SM CLR 17/08 A2998 RMK AO2 SLP151 T01720083 53001 $
Conditions at: KSBP (SAN LUIS OBISPO , CA, US) observed 0256 UTC 27 July 2017
Temperature: 17.2°C (63°F)
Dewpoint: 8.3°C (47°F) [RH = 56%]
Pressure (altimeter): 29.98 inches Hg (1015.3 mb)
[Sea-level pressure: 1015.1 mb]
Winds: from the NW (310 degrees) at 12 MPH (10 knots; 5.2 m/s)
Visibility: 10 or more miles (16+ km)
Ceiling: at least 12,000 feet AGL
Clouds: sky clear below 12,000 feet AGL
Weather:
SOME DATA ABOVE MAY BE INACCURATE!!!
"$" is an indication the sensor requires maintenance

METAR text: KSBP 270156Z 31011KT 10SM CLR 20/11 A2997 RMK AO2 SLP147 T02000111 $
Conditions at: KSBP (SAN LUIS OBISPO , CA, US) observed 0156 UTC 27 July 2017
Temperature: 20.0°C (68°F)
Dewpoint: 11.1°C (52°F) [RH = 57%]
Pressure (altimeter): 29.97 inches Hg (1015.0 mb)
[Sea-level pressure: 1014.7 mb]
Winds: from the NW (310 degrees) at 13 MPH (11 knots; 5.7 m/s)
Visibility: 10 or more miles (16+ km)
Ceiling: at least 12,000 feet AGL
Clouds: sky clear below 12,000 feet AGL
Weather:
SOME DATA ABOVE MAY BE INACCURATE!!!
"$" is an indication the sensor requires maintenance

METAR text: KSBP 270056Z 30011KT 10SM CLR 22/11 A2997 RMK AO2 SLP146 T02220106 $
Conditions at: KSBP (SAN LUIS OBISPO , CA, US) observed 0056 UTC 27 July 2017
Temperature: 22.2°C (72°F)
Dewpoint: 10.6°C (51°F) [RH = 48%]
Pressure (altimeter): 29.97 inches Hg (1015.0 mb)
[Sea-level pressure: 1014.6 mb]
Winds: from the WNW (300 degrees) at 13 MPH (11 knots; 5.7 m/s)
Visibility: 10 or more miles (16+ km)
Ceiling: at least 12,000 feet AGL
Clouds: sky clear below 12,000 feet AGL
Weather:
SOME DATA ABOVE MAY BE INACCURATE!!!
"$" is an indication the sensor requires maintenance

METAR text: KSBP 262356Z 30011KT 10SM CLR 24/10 A2998 RMK AO2 SLP149 T02390100 10272 20217 58009 $
Conditions at: KSBP (SAN LUIS OBISPO , CA, US) observed 2356 UTC 26 July 2017
Temperature: 23.9°C (75°F)
Dewpoint: 10.0°C (50°F) [RH = 41%]
Pressure (altimeter): 29.98 inches Hg (1015.3 mb)
[Sea-level pressure: 1014.9 mb]
Winds: from the WNW (300 degrees) at 13 MPH (11 knots; 5.7 m/s)
Visibility: 10 or more miles (16+ km)
Ceiling: at least 12,000 feet AGL
Clouds: sky clear below 12,000 feet AGL
Weather:
SOME DATA ABOVE MAY BE INACCURATE!!!
"$" is an indication the sensor requires maintenance

METAR text: KSBP 262256Z 31013KT 10SM CLR 24/09 A2998 RMK AO2 PK WND 28029/2206 SLP151 T02440094 $
Conditions at: KSBP (SAN LUIS OBISPO , CA, US) observed 2256 UTC 26 July 2017
Temperature: 24.4°C (76°F)
Dewpoint: 9.4°C (49°F) [RH = 39%]
Pressure (altimeter): 29.98 inches Hg (1015.3 mb)
[Sea-level pressure: 1015.1 mb]
Winds: from the NW (310 degrees) at 15 MPH (13 knots; 6.8 m/s)
Visibility: 10 or more miles (16+ km)
Ceiling: at least 12,000 feet AGL
Clouds: sky clear below 12,000 feet AGL
Weather:
SOME DATA ABOVE MAY BE INACCURATE!!!
"$" is an indication the sensor requires maintenance

METAR text: KSBP 262156Z 32012KT 10SM CLR 24/10 A3000 RMK AO2 SLP155 T02440100 $
Conditions at: KSBP (SAN LUIS OBISPO , CA, US) observed 2156 UTC 26 July 2017
Temperature: 24.4°C (76°F)
Dewpoint: 10.0°C (50°F) [RH = 40%]
Pressure (altimeter): 30.00 inches Hg (1016.0 mb)
[Sea-level pressure: 1015.5 mb]
Winds: from the NW (320 degrees) at 14 MPH (12 knots; 6.2 m/s)
Visibility: 10 or more miles (16+ km)
Ceiling: at least 12,000 feet AGL
Clouds: sky clear below 12,000 feet AGL
Weather:
SOME DATA ABOVE MAY BE INACCURATE!!!
"$" is an indication the sensor requires maintenance